sensor_id;sensor_type;location;lat;lon;timestamp;P1;durP1;ratioP1;P2;durP2;ratioP2
70126;SDS011;57491;42.694;23.314;2022-12-29T00:01:29;27.92;;;16.45;;
70126;SDS011;57491;42.694;23.314;2022-12-29T00:03:57;26.00;;;14.73;;
70126;SDS011;57491;42.694;23.314;2022-12-29T00:06:24;21.85;;;14.93;;
70126;SDS011;57491;42.694;23.314;2022-12-29T00:08:53;24.63;;;15.10;;
70126;SDS011;57491;42.694;23.314;2022-12-29T00:11:21;24.63;;;15.30;;
70126;SDS011;57491;42.694;23.314;2022-12-29T00:13:50;29.40;;;15.68;;
70126;SDS011;57491;42.694;23.314;2022-12-29T00:16:35;28.95;;;15.70;;
70126;SDS011;57491;42.694;23.314;2022-12-29T00:21:30;29.80;;;16.70;;
70126;SDS011;57491;42.694;23.314;2022-12-29T00:24:17;29.67;;;16.67;;
70126;SDS011;57491;42.694;23.314;2022-12-29T00:27:10;27.85;;;15.80;;
70126;SDS011;57491;42.694;23.314;2022-12-29T00:29:56;31.40;;;17.45;;
70126;SDS011;57491;42.694;23.314;2022-12-29T00:32:40;29.13;;;18.10;;
70126;SDS011;57491;42.694;23.314;2022-12-29T00:35:26;35.25;;;19.90;;
70126;SDS011;57491;42.694;23.314;2022-12-29T00:37:55;37.22;;;21.70;;
70126;SDS011;57491;42.694;23.314;2022-12-29T00:40:44;39.28;;;20.70;;
70126;SDS011;57491;42.694;23.314;2022-12-29T00:43:28;39.03;;;22.77;;
70126;SDS011;57491;42.694;23.314;2022-12-29T00:46:24;39.33;;;24.05;;
70126;SDS011;57491;42.694;23.314;2022-12-29T00:48:51;39.38;;;23.80;;
70126;SDS011;57491;42.694;23.314;2022-12-29T00:51:36;40.85;;;20.63;;
70126;SDS011;57491;42.694;23.314;2022-12-29T00:54:03;34.08;;;19.48;;
70126;SDS011;57491;42.694;23.314;2022-12-29T00:56:32;33.35;;;17.60;;
70126;SDS011;57491;42.694;23.314;2022-12-29T00:58:59;34.15;;;18.20;;
70126;SDS011;57491;42.694;23.314;2022-12-29T01:01:27;31.92;;;18.98;;
70126;SDS011;57491;42.694;23.314;2022-12-29T01:03:54;34.33;;;18.63;;
70126;SDS011;57491;42.694;23.314;2022-12-29T01:06:21;33.72;;;18.88;;
70126;SDS011;57491;42.694;23.314;2022-12-29T01:08:48;35.10;;;18.85;;
70126;SDS011;57491;42.694;23.314;2022-12-29T01:11:37;30.52;;;17.80;;
70126;SDS011;57491;42.694;23.314;2022-12-29T01:14:04;30.13;;;17.73;;
70126;SDS011;57491;42.694;23.314;2022-12-29T01:16:31;28.95;;;17.25;;
70126;SDS011;57491;42.694;23.314;2022-12-29T01:18:59;28.33;;;17.17;;
70126;SDS011;57491;42.694;23.314;2022-12-29T01:21:26;28.58;;;16.70;;
70126;SDS011;57491;42.694;23.314;2022-12-29T01:23:53;26.77;;;15.70;;
70126;SDS011;57491;42.694;23.314;2022-12-29T01:26:20;26.60;;;15.50;;
70126;SDS011;57491;42.694;23.314;2022-12-29T01:28:48;26.63;;;15.98;;
70126;SDS011;57491;42.694;23.314;2022-12-29T01:31:16;25.95;;;15.43;;
70126;SDS011;57491;42.694;23.314;2022-12-29T01:33:43;24.30;;;14.23;;
70126;SDS011;57491;42.694;23.314;2022-12-29T01:36:11;26.55;;;15.60;;
70126;SDS011;57491;42.694;23.314;2022-12-29T01:38:39;23.08;;;14.35;;
70126;SDS011;57491;42.694;23.314;2022-12-29T01:41:07;21.15;;;13.65;;
70126;SDS011;57491;42.694;23.314;2022-12-29T01:43:39;22.40;;;13.38;;
70126;SDS011;57491;42.694;23.314;2022-12-29T01:46:11;20.00;;;14.13;;
70126;SDS011;57491;42.694;23.314;2022-12-29T01:48:46;26.25;;;13.27;;
70126;SDS011;57491;42.694;23.314;2022-12-29T01:51:14;22.50;;;12.68;;
70126;SDS011;57491;42.694;23.314;2022-12-29T01:56:10;21.67;;;12.45;;
70126;SDS011;57491;42.694;23.314;2022-12-29T01:58:41;17.80;;;11.95;;
70126;SDS011;57491;42.694;23.314;2022-12-29T02:01:12;23.20;;;12.70;;
70126;SDS011;57491;42.694;23.314;2022-12-29T02:03:40;23.88;;;14.13;;
70126;SDS011;57491;42.694;23.314;2022-12-29T02:06:08;23.67;;;13.00;;
70126;SDS011;57491;42.694;23.314;2022-12-29T02:08:39;22.42;;;13.60;;
70126;SDS011;57491;42.694;23.314;2022-12-29T02:11:07;21.70;;;13.82;;
70126;SDS011;57491;42.694;23.314;2022-12-29T02:13:34;23.38;;;13.82;;
70126;SDS011;57491;42.694;23.314;2022-12-29T02:16:04;19.08;;;12.27;;
70126;SDS011;57491;42.694;23.314;2022-12-29T02:18:43;24.05;;;14.02;;
70126;SDS011;57491;42.694;23.314;2022-12-29T02:24:30;25.52;;;14.45;;
70126;SDS011;57491;42.694;23.314;2022-12-29T02:27:16;22.75;;;12.85;;
70126;SDS011;57491;42.694;23.314;2022-12-29T02:30:02;25.10;;;12.93;;
70126;SDS011;57491;42.694;23.314;2022-12-29T02:32:38;20.23;;;12.82;;
70126;SDS011;57491;42.694;23.314;2022-12-29T02:35:14;20.17;;;13.43;;
70126;SDS011;57491;42.694;23.314;2022-12-29T02:37:55;21.42;;;12.75;;
70126;SDS011;57491;42.694;23.314;2022-12-29T02:40:29;22.83;;;14.05;;
70126;SDS011;57491;42.694;23.314;2022-12-29T02:45:36;24.25;;;13.75;;
70126;SDS011;57491;42.694;23.314;2022-12-29T02:48:12;18.60;;;12.73;;
70126;SDS011;57491;42.694;23.314;2022-12-29T02:50:47;21.67;;;13.85;;
70126;SDS011;57491;42.694;23.314;2022-12-29T02:53:20;23.80;;;13.73;;
70126;SDS011;57491;42.694;23.314;2022-12-29T02:56:08;21.40;;;13.57;;
70126;SDS011;57491;42.694;23.314;2022-12-29T02:58:34;26.02;;;13.95;;
70126;SDS011;57491;42.694;23.314;2022-12-29T03:01:16;23.97;;;14.33;;
70126;SDS011;57491;42.694;23.314;2022-12-29T03:04:04;21.20;;;13.68;;
70126;SDS011;57491;42.694;23.314;2022-12-29T03:06:51;26.10;;;13.43;;
70126;SDS011;57491;42.694;23.314;2022-12-29T03:09:26;21.42;;;13.90;;
70126;SDS011;57491;42.694;23.314;2022-12-29T03:12:03;23.48;;;13.73;;
70126;SDS011;57491;42.694;23.314;2022-12-29T03:14:52;22.88;;;12.93;;
70126;SDS011;57491;42.694;23.314;2022-12-29T03:17:45;24.90;;;14.32;;
70126;SDS011;57491;42.694;23.314;2022-12-29T03:20:21;23.80;;;14.35;;
70126;SDS011;57491;42.694;23.314;2022-12-29T03:22:52;24.90;;;14.35;;
70126;SDS011;57491;42.694;23.314;2022-12-29T03:25:23;23.50;;;13.82;;
70126;SDS011;57491;42.694;23.314;2022-12-29T03:27:55;22.55;;;13.95;;
70126;SDS011;57491;42.694;23.314;2022-12-29T03:30:26;24.02;;;14.35;;
70126;SDS011;57491;42.694;23.314;2022-12-29T03:32:55;28.23;;;14.73;;
70126;SDS011;57491;42.694;23.314;2022-12-29T03:35:29;24.90;;;14.50;;
70126;SDS011;57491;42.694;23.314;2022-12-29T03:38:00;24.33;;;14.68;;
70126;SDS011;57491;42.694;23.314;2022-12-29T03:40:33;25.35;;;13.63;;
70126;SDS011;57491;42.694;23.314;2022-12-29T03:43:01;23.92;;;13.98;;
70126;SDS011;57491;42.694;23.314;2022-12-29T03:45:29;24.13;;;14.02;;
70126;SDS011;57491;42.694;23.314;2022-12-29T03:47:57;24.35;;;15.07;;
70126;SDS011;57491;42.694;23.314;2022-12-29T03:50:24;24.27;;;14.55;;
70126;SDS011;57491;42.694;23.314;2022-12-29T03:52:52;26.35;;;15.18;;
70126;SDS011;57491;42.694;23.314;2022-12-29T03:55:19;26.13;;;14.38;;
70126;SDS011;57491;42.694;23.314;2022-12-29T03:57:46;24.35;;;14.15;;
70126;SDS011;57491;42.694;23.314;2022-12-29T04:00:13;22.38;;;14.27;;
70126;SDS011;57491;42.694;23.314;2022-12-29T04:02:41;24.90;;;15.25;;
70126;SDS011;57491;42.694;23.314;2022-12-29T04:05:08;24.38;;;15.35;;
70126;SDS011;57491;42.694;23.314;2022-12-29T04:07:35;23.95;;;14.90;;
70126;SDS011;57491;42.694;23.314;2022-12-29T04:10:04;28.83;;;15.90;;
70126;SDS011;57491;42.694;23.314;2022-12-29T04:12:32;27.08;;;15.77;;
70126;SDS011;57491;42.694;23.314;2022-12-29T04:14:59;28.63;;;16.38;;
70126;SDS011;57491;42.694;23.314;2022-12-29T04:17:26;31.20;;;17.08;;
70126;SDS011;57491;42.694;23.314;2022-12-29T04:19:53;29.85;;;16.73;;
70126;SDS011;57491;42.694;23.314;2022-12-29T04:22:41;32.10;;;16.90;;
70126;SDS011;57491;42.694;23.314;2022-12-29T04:25:10;32.60;;;16.83;;
70126;SDS011;57491;42.694;23.314;2022-12-29T04:27:37;29.20;;;15.80;;
70126;SDS011;57491;42.694;23.314;2022-12-29T04:30:04;29.38;;;16.70;;
70126;SDS011;57491;42.694;23.314;2022-12-29T04:32:32;30.00;;;16.15;;
70126;SDS011;57491;42.694;23.314;2022-12-29T04:35:00;25.77;;;14.15;;
70126;SDS011;57491;42.694;23.314;2022-12-29T04:37:27;28.33;;;16.37;;
70126;SDS011;57491;42.694;23.314;2022-12-29T04:39:54;30.50;;;15.20;;
70126;SDS011;57491;42.694;23.314;2022-12-29T04:42:22;27.52;;;14.85;;
70126;SDS011;57491;42.694;23.314;2022-12-29T04:44:49;28.30;;;15.30;;
70126;SDS011;57491;42.694;23.314;2022-12-29T04:47:16;25.90;;;15.32;;
70126;SDS011;57491;42.694;23.314;2022-12-29T04:49:43;27.27;;;16.00;;
70126;SDS011;57491;42.694;23.314;2022-12-29T04:52:11;26.95;;;16.08;;
70126;SDS011;57491;42.694;23.314;2022-12-29T04:54:38;29.13;;;15.90;;
70126;SDS011;57491;42.694;23.314;2022-12-29T04:57:05;29.53;;;16.03;;
70126;SDS011;57491;42.694;23.314;2022-12-29T04:59:33;27.35;;;15.35;;
70126;SDS011;57491;42.694;23.314;2022-12-29T05:02:00;29.48;;;15.32;;
70126;SDS011;57491;42.694;23.314;2022-12-29T05:04:27;30.92;;;16.48;;
70126;SDS011;57491;42.694;23.314;2022-12-29T05:06:54;28.15;;;14.70;;
70126;SDS011;57491;42.694;23.314;2022-12-29T05:09:21;25.42;;;13.38;;
70126;SDS011;57491;42.694;23.314;2022-12-29T05:11:49;22.98;;;14.18;;
70126;SDS011;57491;42.694;23.314;2022-12-29T05:14:16;25.80;;;14.50;;
70126;SDS011;57491;42.694;23.314;2022-12-29T05:16:45;32.08;;;15.35;;
70126;SDS011;57491;42.694;23.314;2022-12-29T05:19:12;30.25;;;14.95;;
70126;SDS011;57491;42.694;23.314;2022-12-29T05:21:39;26.05;;;14.70;;
70126;SDS011;57491;42.694;23.314;2022-12-29T05:24:06;22.60;;;14.32;;
70126;SDS011;57491;42.694;23.314;2022-12-29T05:26:33;23.75;;;13.90;;
70126;SDS011;57491;42.694;23.314;2022-12-29T05:29:00;24.50;;;13.10;;
70126;SDS011;57491;42.694;23.314;2022-12-29T05:31:28;25.58;;;13.82;;
70126;SDS011;57491;42.694;23.314;2022-12-29T05:33:56;27.25;;;14.73;;
70126;SDS011;57491;42.694;23.314;2022-12-29T05:36:23;24.23;;;14.43;;
70126;SDS011;57491;42.694;23.314;2022-12-29T05:38:50;22.25;;;14.27;;
70126;SDS011;57491;42.694;23.314;2022-12-29T05:41:17;27.27;;;16.23;;
70126;SDS011;57491;42.694;23.314;2022-12-29T05:43:44;25.02;;;14.57;;
70126;SDS011;57491;42.694;23.314;2022-12-29T05:46:11;24.33;;;13.10;;
70126;SDS011;57491;42.694;23.314;2022-12-29T05:48:38;27.38;;;15.75;;
70126;SDS011;57491;42.694;23.314;2022-12-29T05:51:07;34.00;;;17.50;;
70126;SDS011;57491;42.694;23.314;2022-12-29T05:53:34;33.42;;;18.05;;
70126;SDS011;57491;42.694;23.314;2022-12-29T05:56:01;39.67;;;21.98;;
70126;SDS011;57491;42.694;23.314;2022-12-29T05:58:28;47.70;;;23.80;;
70126;SDS011;57491;42.694;23.314;2022-12-29T06:00:55;39.77;;;23.23;;
70126;SDS011;57491;42.694;23.314;2022-12-29T06:03:22;44.73;;;25.20;;
70126;SDS011;57491;42.694;23.314;2022-12-29T06:05:50;40.78;;;24.45;;
70126;SDS011;57491;42.694;23.314;2022-12-29T06:08:18;44.75;;;22.38;;
70126;SDS011;57491;42.694;23.314;2022-12-29T06:10:45;43.78;;;25.48;;
70126;SDS011;57491;42.694;23.314;2022-12-29T06:13:12;45.08;;;25.00;;
70126;SDS011;57491;42.694;23.314;2022-12-29T06:15:39;46.07;;;24.23;;
70126;SDS011;57491;42.694;23.314;2022-12-29T06:18:07;39.13;;;23.20;;
70126;SDS011;57491;42.694;23.314;2022-12-29T06:20:34;46.77;;;25.83;;
70126;SDS011;57491;42.694;23.314;2022-12-29T06:23:01;48.28;;;24.73;;
70126;SDS011;57491;42.694;23.314;2022-12-29T06:25:30;44.80;;;24.40;;
70126;SDS011;57491;42.694;23.314;2022-12-29T06:27:58;51.03;;;27.80;;
70126;SDS011;57491;42.694;23.314;2022-12-29T06:30:26;53.27;;;29.33;;
70126;SDS011;57491;42.694;23.314;2022-12-29T06:32:53;54.95;;;30.30;;
70126;SDS011;57491;42.694;23.314;2022-12-29T06:35:20;49.57;;;28.53;;
70126;SDS011;57491;42.694;23.314;2022-12-29T06:37:48;54.95;;;29.08;;
70126;SDS011;57491;42.694;23.314;2022-12-29T06:40:15;52.27;;;29.17;;
70126;SDS011;57491;42.694;23.314;2022-12-29T06:42:43;50.47;;;29.33;;
70126;SDS011;57491;42.694;23.314;2022-12-29T06:45:12;49.00;;;29.52;;
70126;SDS011;57491;42.694;23.314;2022-12-29T06:47:39;51.10;;;29.88;;
70126;SDS011;57491;42.694;23.314;2022-12-29T06:50:06;50.92;;;31.45;;
70126;SDS011;57491;42.694;23.314;2022-12-29T06:52:34;46.63;;;27.52;;
70126;SDS011;57491;42.694;23.314;2022-12-29T06:55:01;48.90;;;27.30;;
70126;SDS011;57491;42.694;23.314;2022-12-29T06:57:29;43.50;;;25.50;;
70126;SDS011;57491;42.694;23.314;2022-12-29T06:59:57;37.57;;;20.53;;
70126;SDS011;57491;42.694;23.314;2022-12-29T07:02:24;27.63;;;17.25;;
70126;SDS011;57491;42.694;23.314;2022-12-29T07:04:53;24.33;;;15.43;;
70126;SDS011;57491;42.694;23.314;2022-12-29T07:07:20;27.05;;;16.98;;
70126;SDS011;57491;42.694;23.314;2022-12-29T07:09:47;28.52;;;16.95;;
70126;SDS011;57491;42.694;23.314;2022-12-29T07:12:14;26.70;;;17.40;;
70126;SDS011;57491;42.694;23.314;2022-12-29T07:14:42;35.45;;;17.40;;
70126;SDS011;57491;42.694;23.314;2022-12-29T07:17:10;31.53;;;18.83;;
70126;SDS011;57491;42.694;23.314;2022-12-29T07:19:37;28.92;;;16.67;;
70126;SDS011;57491;42.694;23.314;2022-12-29T07:22:04;31.60;;;17.45;;
70126;SDS011;57491;42.694;23.314;2022-12-29T07:24:31;33.03;;;17.35;;
70126;SDS011;57491;42.694;23.314;2022-12-29T07:26:59;32.53;;;17.23;;
70126;SDS011;57491;42.694;23.314;2022-12-29T07:29:26;27.95;;;17.75;;
70126;SDS011;57491;42.694;23.314;2022-12-29T07:31:53;31.55;;;18.65;;
70126;SDS011;57491;42.694;23.314;2022-12-29T07:34:22;32.47;;;18.98;;
70126;SDS011;57491;42.694;23.314;2022-12-29T07:36:49;31.27;;;18.17;;
70126;SDS011;57491;42.694;23.314;2022-12-29T07:39:16;23.73;;;15.20;;
70126;SDS011;57491;42.694;23.314;2022-12-29T07:41:43;30.35;;;16.60;;
70126;SDS011;57491;42.694;23.314;2022-12-29T07:44:10;24.23;;;15.60;;
70126;SDS011;57491;42.694;23.314;2022-12-29T07:46:37;22.80;;;14.97;;
70126;SDS011;57491;42.694;23.314;2022-12-29T07:49:04;27.52;;;15.30;;
70126;SDS011;57491;42.694;23.314;2022-12-29T07:51:33;28.63;;;16.95;;
70126;SDS011;57491;42.694;23.314;2022-12-29T07:54:00;28.08;;;17.13;;
70126;SDS011;57491;42.694;23.314;2022-12-29T07:56:27;30.93;;;17.67;;
70126;SDS011;57491;42.694;23.314;2022-12-29T07:58:54;25.60;;;16.02;;
70126;SDS011;57491;42.694;23.314;2022-12-29T08:01:22;25.25;;;17.23;;
70126;SDS011;57491;42.694;23.314;2022-12-29T08:03:49;27.42;;;15.77;;
70126;SDS011;57491;42.694;23.314;2022-12-29T08:06:16;30.93;;;16.10;;
70126;SDS011;57491;42.694;23.314;2022-12-29T08:08:45;27.37;;;17.37;;
70126;SDS011;57491;42.694;23.314;2022-12-29T08:11:12;22.83;;;16.13;;
70126;SDS011;57491;42.694;23.314;2022-12-29T08:13:39;23.20;;;15.68;;
70126;SDS011;57491;42.694;23.314;2022-12-29T08:16:06;23.80;;;14.93;;
70126;SDS011;57491;42.694;23.314;2022-12-29T08:18:33;24.40;;;15.93;;
70126;SDS011;57491;42.694;23.314;2022-12-29T08:21:01;24.88;;;16.02;;
70126;SDS011;57491;42.694;23.314;2022-12-29T08:23:29;30.98;;;17.33;;
70126;SDS011;57491;42.694;23.314;2022-12-29T08:25:58;23.45;;;16.83;;
70126;SDS011;57491;42.694;23.314;2022-12-29T08:28:26;30.20;;;17.73;;
70126;SDS011;57491;42.694;23.314;2022-12-29T08:30:53;27.48;;;16.23;;
70126;SDS011;57491;42.694;23.314;2022-12-29T08:33:23;27.02;;;16.42;;
70126;SDS011;57491;42.694;23.314;2022-12-29T08:35:50;23.35;;;16.30;;
70126;SDS011;57491;42.694;23.314;2022-12-29T08:38:18;27.85;;;18.00;;
70126;SDS011;57491;42.694;23.314;2022-12-29T08:40:45;24.20;;;17.25;;
70126;SDS011;57491;42.694;23.314;2022-12-29T08:43:13;23.10;;;16.60;;
70126;SDS011;57491;42.694;23.314;2022-12-29T08:45:40;37.95;;;17.55;;
70126;SDS011;57491;42.694;23.314;2022-12-29T08:48:07;28.20;;;18.73;;
70126;SDS011;57491;42.694;23.314;2022-12-29T08:50:34;25.40;;;18.15;;
70126;SDS011;57491;42.694;23.314;2022-12-29T08:53:01;25.97;;;17.83;;
70126;SDS011;57491;42.694;23.314;2022-12-29T08:55:28;30.75;;;20.20;;
70126;SDS011;57491;42.694;23.314;2022-12-29T08:57:55;23.73;;;18.17;;
70126;SDS011;57491;42.694;23.314;2022-12-29T09:00:24;29.67;;;18.97;;
70126;SDS011;57491;42.694;23.314;2022-12-29T09:02:51;29.63;;;19.08;;
70126;SDS011;57491;42.694;23.314;2022-12-29T09:05:18;30.10;;;18.77;;
70126;SDS011;57491;42.694;23.314;2022-12-29T09:07:45;25.35;;;19.10;;
70126;SDS011;57491;42.694;23.314;2022-12-29T09:10:12;25.27;;;18.60;;
70126;SDS011;57491;42.694;23.314;2022-12-29T09:12:39;29.03;;;20.77;;
70126;SDS011;57491;42.694;23.314;2022-12-29T09:15:07;25.77;;;18.33;;
70126;SDS011;57491;42.694;23.314;2022-12-29T09:17:36;27.23;;;19.60;;
70126;SDS011;57491;42.694;23.314;2022-12-29T09:20:12;31.17;;;20.95;;
70126;SDS011;57491;42.694;23.314;2022-12-29T09:22:42;27.13;;;19.17;;
70126;SDS011;57491;42.694;23.314;2022-12-29T09:25:10;27.52;;;20.85;;
70126;SDS011;57491;42.694;23.314;2022-12-29T09:27:38;28.98;;;18.98;;
70126;SDS011;57491;42.694;23.314;2022-12-29T09:30:06;26.98;;;19.75;;
70126;SDS011;57491;42.694;23.314;2022-12-29T09:32:38;31.92;;;21.10;;
70126;SDS011;57491;42.694;23.314;2022-12-29T09:35:05;35.15;;;20.80;;
70126;SDS011;57491;42.694;23.314;2022-12-29T09:37:32;27.48;;;21.55;;
70126;SDS011;57491;42.694;23.314;2022-12-29T09:39:59;32.90;;;22.33;;
70126;SDS011;57491;42.694;23.314;2022-12-29T09:42:27;31.05;;;21.90;;
70126;SDS011;57491;42.694;23.314;2022-12-29T09:45:02;27.30;;;21.55;;
70126;SDS011;57491;42.694;23.314;2022-12-29T09:47:38;30.35;;;23.00;;
70126;SDS011;57491;42.694;23.314;2022-12-29T09:50:12;26.52;;;20.83;;
70126;SDS011;57491;42.694;23.314;2022-12-29T09:52:47;28.92;;;21.85;;
70126;SDS011;57491;42.694;23.314;2022-12-29T09:55:23;30.90;;;22.13;;
70126;SDS011;57491;42.694;23.314;2022-12-29T09:57:57;27.98;;;22.08;;
70126;SDS011;57491;42.694;23.314;2022-12-29T10:00:36;29.25;;;22.90;;
70126;SDS011;57491;42.694;23.314;2022-12-29T10:03:12;28.98;;;21.92;;
70126;SDS011;57491;42.694;23.314;2022-12-29T10:05:44;26.20;;;20.83;;
70126;SDS011;57491;42.694;23.314;2022-12-29T10:08:17;26.83;;;21.52;;
70126;SDS011;57491;42.694;23.314;2022-12-29T10:10:54;25.80;;;20.25;;
70126;SDS011;57491;42.694;23.314;2022-12-29T10:13:28;27.83;;;21.35;;
70126;SDS011;57491;42.694;23.314;2022-12-29T10:16:07;25.48;;;20.48;;
70126;SDS011;57491;42.694;23.314;2022-12-29T10:18:44;25.30;;;21.67;;
70126;SDS011;57491;42.694;23.314;2022-12-29T10:21:29;25.02;;;22.00;;
70126;SDS011;57491;42.694;23.314;2022-12-29T10:24:07;21.85;;;18.40;;
70126;SDS011;57491;42.694;23.314;2022-12-29T10:26:39;26.17;;;20.48;;
70126;SDS011;57491;42.694;23.314;2022-12-29T10:29:11;23.45;;;20.15;;
70126;SDS011;57491;42.694;23.314;2022-12-29T10:31:43;24.95;;;21.67;;
70126;SDS011;57491;42.694;23.314;2022-12-29T10:34:18;22.40;;;19.95;;
70126;SDS011;57491;42.694;23.314;2022-12-29T10:36:50;21.38;;;18.98;;
70126;SDS011;57491;42.694;23.314;2022-12-29T10:39:26;24.27;;;19.35;;
70126;SDS011;57491;42.694;23.314;2022-12-29T10:41:59;21.17;;;18.25;;
70126;SDS011;57491;42.694;23.314;2022-12-29T10:44:34;21.42;;;18.25;;
70126;SDS011;57491;42.694;23.314;2022-12-29T10:47:02;23.35;;;18.25;;
70126;SDS011;57491;42.694;23.314;2022-12-29T10:49:34;21.10;;;18.77;;
70126;SDS011;57491;42.694;23.314;2022-12-29T10:52:06;22.35;;;18.80;;
70126;SDS011;57491;42.694;23.314;2022-12-29T10:54:37;23.70;;;16.98;;
70126;SDS011;57491;42.694;23.314;2022-12-29T10:57:10;22.13;;;18.30;;
70126;SDS011;57491;42.694;23.314;2022-12-29T10:59:45;21.85;;;17.60;;
70126;SDS011;57491;42.694;23.314;2022-12-29T11:04:55;22.92;;;18.67;;
70126;SDS011;57491;42.694;23.314;2022-12-29T11:07:28;21.52;;;17.63;;
70126;SDS011;57491;42.694;23.314;2022-12-29T11:12:46;23.13;;;17.30;;
70126;SDS011;57491;42.694;23.314;2022-12-29T11:15:23;20.52;;;17.80;;
70126;SDS011;57491;42.694;23.314;2022-12-29T11:17:51;22.15;;;19.30;;
70126;SDS011;57491;42.694;23.314;2022-12-29T11:20:32;23.85;;;19.25;;
70126;SDS011;57491;42.694;23.314;2022-12-29T11:23:01;23.15;;;18.38;;
70126;SDS011;57491;42.694;23.314;2022-12-29T11:25:29;24.30;;;20.05;;
70126;SDS011;57491;42.694;23.314;2022-12-29T11:27:58;21.05;;;18.55;;
70126;SDS011;57491;42.694;23.314;2022-12-29T11:30:28;25.50;;;19.77;;
70126;SDS011;57491;42.694;23.314;2022-12-29T11:32:56;20.45;;;16.77;;
70126;SDS011;57491;42.694;23.314;2022-12-29T11:35:33;21.65;;;17.83;;
70126;SDS011;57491;42.694;23.314;2022-12-29T11:38:02;19.05;;;17.08;;
70126;SDS011;57491;42.694;23.314;2022-12-29T11:40:31;19.05;;;17.10;;
70126;SDS011;57491;42.694;23.314;2022-12-29T11:43:04;20.60;;;17.38;;
70126;SDS011;57491;42.694;23.314;2022-12-29T11:45:33;19.60;;;17.02;;
70126;SDS011;57491;42.694;23.314;2022-12-29T11:48:06;18.52;;;16.73;;
70126;SDS011;57491;42.694;23.314;2022-12-29T11:50:37;19.13;;;16.25;;
70126;SDS011;57491;42.694;23.314;2022-12-29T11:53:08;19.17;;;17.23;;
70126;SDS011;57491;42.694;23.314;2022-12-29T11:55:50;19.20;;;16.80;;
70126;SDS011;57491;42.694;23.314;2022-12-29T11:58:19;26.70;;;17.58;;
70126;SDS011;57491;42.694;23.314;2022-12-29T12:00:46;23.33;;;18.77;;
70126;SDS011;57491;42.694;23.314;2022-12-29T12:03:16;22.77;;;17.52;;
70126;SDS011;57491;42.694;23.314;2022-12-29T12:05:49;20.98;;;16.50;;
70126;SDS011;57491;42.694;23.314;2022-12-29T12:08:22;24.67;;;18.75;;
70126;SDS011;57491;42.694;23.314;2022-12-29T12:11:01;22.42;;;17.45;;
70126;SDS011;57491;42.694;23.314;2022-12-29T12:13:33;21.08;;;17.65;;
70126;SDS011;57491;42.694;23.314;2022-12-29T12:16:07;28.55;;;19.90;;
70126;SDS011;57491;42.694;23.314;2022-12-29T12:18:40;23.08;;;18.33;;
70126;SDS011;57491;42.694;23.314;2022-12-29T12:21:18;24.42;;;17.75;;
70126;SDS011;57491;42.694;23.314;2022-12-29T12:23:56;24.23;;;17.45;;
70126;SDS011;57491;42.694;23.314;2022-12-29T12:26:30;22.27;;;17.50;;
70126;SDS011;57491;42.694;23.314;2022-12-29T12:29:04;25.50;;;17.73;;
70126;SDS011;57491;42.694;23.314;2022-12-29T12:31:41;28.58;;;18.17;;
70126;SDS011;57491;42.694;23.314;2022-12-29T12:34:16;25.60;;;16.58;;
70126;SDS011;57491;42.694;23.314;2022-12-29T12:39:52;23.35;;;15.57;;
70126;SDS011;57491;42.694;23.314;2022-12-29T12:42:38;23.17;;;16.05;;
70126;SDS011;57491;42.694;23.314;2022-12-29T12:45:27;27.38;;;16.05;;
70126;SDS011;57491;42.694;23.314;2022-12-29T12:48:13;29.63;;;17.85;;
70126;SDS011;57491;42.694;23.314;2022-12-29T12:51:03;28.02;;;17.08;;
70126;SDS011;57491;42.694;23.314;2022-12-29T12:53:46;27.52;;;16.77;;
70126;SDS011;57491;42.694;23.314;2022-12-29T12:56:30;24.80;;;16.45;;
70126;SDS011;57491;42.694;23.314;2022-12-29T12:59:13;31.10;;;17.75;;
70126;SDS011;57491;42.694;23.314;2022-12-29T13:04:32;25.40;;;17.13;;
70126;SDS011;57491;42.694;23.314;2022-12-29T13:07:17;26.42;;;17.30;;
70126;SDS011;57491;42.694;23.314;2022-12-29T13:09:58;27.52;;;16.85;;
70126;SDS011;57491;42.694;23.314;2022-12-29T13:12:37;24.08;;;16.75;;
70126;SDS011;57491;42.694;23.314;2022-12-29T13:15:15;28.35;;;16.85;;
70126;SDS011;57491;42.694;23.314;2022-12-29T13:17:54;24.15;;;16.63;;
70126;SDS011;57491;42.694;23.314;2022-12-29T13:20:28;21.73;;;16.55;;
70126;SDS011;57491;42.694;23.314;2022-12-29T13:23:02;28.80;;;18.15;;
70126;SDS011;57491;42.694;23.314;2022-12-29T13:25:39;28.45;;;17.60;;
70126;SDS011;57491;42.694;23.314;2022-12-29T13:28:13;24.88;;;16.73;;
70126;SDS011;57491;42.694;23.314;2022-12-29T13:30:48;24.67;;;16.30;;
70126;SDS011;57491;42.694;23.314;2022-12-29T13:33:26;25.33;;;17.35;;
70126;SDS011;57491;42.694;23.314;2022-12-29T13:36:02;24.53;;;17.37;;
70126;SDS011;57491;42.694;23.314;2022-12-29T13:38:33;24.40;;;18.50;;
70126;SDS011;57491;42.694;23.314;2022-12-29T13:41:05;23.30;;;18.50;;
70126;SDS011;57491;42.694;23.314;2022-12-29T13:43:35;26.83;;;19.15;;
70126;SDS011;57491;42.694;23.314;2022-12-29T13:46:07;28.17;;;19.55;;
70126;SDS011;57491;42.694;23.314;2022-12-29T13:48:39;29.60;;;18.70;;
70126;SDS011;57491;42.694;23.314;2022-12-29T13:51:12;30.42;;;20.02;;
70126;SDS011;57491;42.694;23.314;2022-12-29T13:53:42;31.48;;;23.13;;
70126;SDS011;57491;42.694;23.314;2022-12-29T13:56:30;30.17;;;18.77;;
70126;SDS011;57491;42.694;23.314;2022-12-29T13:59:03;33.72;;;19.52;;
70126;SDS011;57491;42.694;23.314;2022-12-29T14:01:39;30.70;;;18.48;;
70126;SDS011;57491;42.694;23.314;2022-12-29T14:04:12;31.70;;;21.52;;
70126;SDS011;57491;42.694;23.314;2022-12-29T14:06:41;32.50;;;19.55;;
70126;SDS011;57491;42.694;23.314;2022-12-29T14:12:02;36.20;;;20.40;;
70126;SDS011;57491;42.694;23.314;2022-12-29T14:14:47;35.38;;;19.73;;
70126;SDS011;57491;42.694;23.314;2022-12-29T14:17:16;32.05;;;19.58;;
70126;SDS011;57491;42.694;23.314;2022-12-29T14:19:46;35.28;;;20.02;;
70126;SDS011;57491;42.694;23.314;2022-12-29T14:22:22;33.30;;;19.60;;
70126;SDS011;57491;42.694;23.314;2022-12-29T14:24:50;28.55;;;18.55;;
70126;SDS011;57491;42.694;23.314;2022-12-29T14:33:19;36.05;;;19.70;;
70126;SDS011;57491;42.694;23.314;2022-12-29T14:35:48;30.27;;;18.48;;
70126;SDS011;57491;42.694;23.314;2022-12-29T14:41:22;35.72;;;18.30;;
70126;SDS011;57491;42.694;23.314;2022-12-29T14:43:58;37.08;;;20.05;;
70126;SDS011;57491;42.694;23.314;2022-12-29T14:49:25;29.05;;;18.17;;
70126;SDS011;57491;42.694;23.314;2022-12-29T14:52:04;32.75;;;20.58;;
70126;SDS011;57491;42.694;23.314;2022-12-29T14:54:34;29.63;;;18.20;;
70126;SDS011;57491;42.694;23.314;2022-12-29T14:57:10;31.60;;;17.75;;
70126;SDS011;57491;42.694;23.314;2022-12-29T14:59:46;36.90;;;19.40;;
70126;SDS011;57491;42.694;23.314;2022-12-29T15:02:17;28.85;;;17.58;;
70126;SDS011;57491;42.694;23.314;2022-12-29T15:04:47;30.45;;;17.80;;
70126;SDS011;57491;42.694;23.314;2022-12-29T15:07:15;34.78;;;18.83;;
70126;SDS011;57491;42.694;23.314;2022-12-29T15:09:46;37.17;;;18.70;;